| time (UTC) | temp F | wind direction | speed MPH | gust MPH | rain 1hr in | rain 24hr in | rain mn in | humidity % | barometer mb |
| 20260504231549 | 81 | 229 | 3.0 | 6.0 | 0.00 | 0.00 | 0.00 | 30 | |
| 20260504231045 | 80 | 323 | 3.0 | 11.0 | 0.00 | 0.00 | 0.00 | 29 | |
| 20260504230541 | 81 | 273 | 10.0 | 17.0 | 0.00 | 0.00 | 0.00 | 28 | |
| 20260504230041 | 82 | 262 | 3.0 | 13.0 | 0.00 | 0.00 | 0.00 | 28 | |
| 20260504225537 | 83 | 237 | 2.0 | 6.0 | 0.00 | 0.00 | 0.00 | 28 | |
| 20260504225034 | 81 | 66 | 0.0 | 14.0 | 0.00 | 0.00 | 0.00 | 28 | |
| 20260504224531 | 82 | 217 | 4.0 | 5.0 | 0.00 | 0.00 | 0.00 | 29 | |
| 20260504224028 | 82 | 247 | 3.0 | 7.0 | 0.00 | 0.00 | 0.00 | 28 | |
| 20260504223525 | 81 | 296 | 3.0 | 12.0 | 0.00 | 0.00 | 0.00 | 28 | |
| 20260504223020 | 82 | 252 | 3.0 | 14.0 | 0.00 | 0.00 | 0.00 | 27 | |
| 20260504222517 | 82 | 199 | 3.0 | 8.0 | 0.00 | 0.00 | 0.00 | 27 | |
| 20260504222015 | 83 | 285 | 3.0 | 5.0 | 0.00 | 0.00 | 0.00 | 29 | |
| 20260504221512 | 82 | 153 | 2.0 | 12.0 | 0.00 | 0.00 | 0.00 | 29 | |
| 20260504221009 | 81 | 252 | 3.0 | 8.0 | 0.00 | 0.00 | 0.00 | 28 | |
| 20260504220505 | 81 | 237 | 2.0 | 12.0 | 0.00 | 0.00 | 0.00 | 29 | |
| 20260504220002 | 82 | 203 | 2.0 | 11.0 | 0.00 | 0.00 | 0.00 | 29 | |
| 20260504215459 | 82 | 224 | 4.0 | 10.0 | 0.00 | 0.00 | 0.00 | 29 | |
| 20260504214956 | 82 | 203 | 2.0 | 8.0 | 0.00 | 0.00 | 0.00 | 28 | |
| 20260504214452 | 82 | 216 | 4.0 | 7.0 | 0.00 | 0.00 | 0.00 | 30 | |
| 20260504213949 | 81 | 258 | 9.0 | 11.0 | 0.00 | 0.00 | 0.00 | 30 | |
| 20260504213444 | 81 | 331 | 2.0 | 9.0 | 0.00 | 0.00 | 0.00 | 30 | |
| 20260504212942 | 81 | 166 | 3.0 | 10.0 | 0.00 | 0.00 | 0.00 | 29 | |
| 20260504212438 | 82 | 236 | 3.0 | 11.0 | 0.00 | 0.00 | 0.00 | 30 | |
| 20260504211936 | 81 | 207 | 4.0 | 9.0 | 0.00 | 0.00 | 0.00 | 29 | |
| 20260504211432 | 81 | 217 | 3.0 | 9.0 | 0.00 | 0.00 | 0.00 | 31 | |
| 20260504210930 | 81 | 260 | 7.0 | 14.0 | 0.00 | 0.00 | 0.00 | 29 | |
| 20260504210426 | 80 | 246 | 3.0 | 10.0 | 0.00 | 0.00 | 0.00 | 30 | |
| 20260504205923 | 80 | 297 | 2.0 | 9.0 | 0.00 | 0.00 | 0.00 | 30 | |
| 20260504205421 | 80 | 264 | 5.0 | 14.0 | 0.00 | 0.00 | 0.00 | 29 | |
| 20260504204919 | 80 | 279 | 5.0 | 11.0 | 0.00 | 0.00 | 0.00 | 30 | |
| 20260504204417 | 81 | 250 | 3.0 | 8.0 | 0.00 | 0.00 | 0.00 | 30 | |
| 20260504203916 | 80 | 261 | 4.0 | 12.0 | 0.00 | 0.00 | 0.00 | 30 | |
| 20260504203413 | 81 | 279 | 4.0 | 8.0 | 0.00 | 0.00 | 0.00 | 30 | |
| 20260504202909 | 81 | 173 | 2.0 | 6.0 | 0.00 | 0.00 | 0.00 | 30 | |
| 20260504202406 | 80 | 224 | 4.0 | 18.0 | 0.00 | 0.00 | 0.00 | 30 | |
| 20260504201902 | 80 | 238 | 2.0 | 8.0 | 0.00 | 0.00 | 0.00 | 31 | |
| 20260504201400 | 81 | 119 | 3.0 | 8.0 | 0.00 | 0.00 | 0.00 | 29 | |
| 20260504200857 | 81 | 212 | 5.0 | 8.0 | 0.00 | 0.00 | 0.00 | 30 | |
| 20260504200354 | 80 | 206 | 5.0 | 9.0 | 0.00 | 0.00 | 0.00 | 31 | |
| 20260504195850 | 79 | 238 | 2.0 | 10.0 | 0.00 | 0.00 | 0.00 | 31 | |
| 20260504195346 | 80 | 220 | 5.0 | 10.0 | 0.00 | 0.00 | 0.00 | 30 | |
| 20260504194843 | 79 | 213 | 1.0 | 6.0 | 0.00 | 0.00 | 0.00 | 31 | |
| 20260504194339 | 79 | 189 | 3.0 | 6.0 | 0.00 | 0.00 | 0.00 | 32 | |
| 20260504193835 | 79 | 239 | 2.0 | 7.0 | 0.00 | 0.00 | 0.00 | 31 | |
| 20260504193332 | 79 | 276 | 3.0 | 8.0 | 0.00 | 0.00 | 0.00 | 32 | |
| 20260504192831 | 78 | 293 | 4.0 | 16.0 | 0.00 | 0.00 | 0.00 | 32 | |
| 20260504192329 | 78 | 198 | 0.0 | 6.0 | 0.00 | 0.00 | 0.00 | 33 | |
| 20260504191827 | 78 | 189 | 4.0 | 9.0 | 0.00 | 0.00 | 0.00 | 31 | |
| 20260504191324 | 78 | 290 | 2.0 | 7.0 | 0.00 | 0.00 | 0.00 | 32 | |
| 20260504190819 | 78 | 249 | 3.0 | 13.0 | 0.00 | 0.00 | 0.00 | 32 | |
| 20260504190316 | 78 | 224 | 5.0 | 6.0 | 0.00 | 0.00 | 0.00 | 32 | |
| 20260504185812 | 78 | 290 | 2.0 | 6.0 | 0.00 | 0.00 | 0.00 | 33 | |
| 20260504185309 | 78 | 241 | 0.0 | 9.0 | 0.00 | 0.00 | 0.00 | 32 | |
| 20260504184805 | 77 | 283 | 4.0 | 7.0 | 0.00 | 0.00 | 0.00 | 33 | |
| 20260504184301 | 77 | 284 | 3.0 | 9.0 | 0.00 | 0.00 | 0.00 | 32 | |
| 20260504183757 | 78 | 233 | 2.0 | 4.0 | 0.00 | 0.00 | 0.00 | 33 | |
| 20260504183254 | 77 | 159 | 1.0 | 9.0 | 0.00 | 0.00 | 0.00 | 33 | |
| 20260504182752 | 77 | 282 | 2.0 | 5.0 | 0.00 | 0.00 | 0.00 | 33 | |
| 20260504182249 | 77 | 269 | 2.0 | 9.0 | 0.00 | 0.00 | 0.00 | 32 | |
| 20260504181747 | 77 | 195 | 2.0 | 7.0 | 0.00 | 0.00 | 0.00 | 32 | |
| 20260504181244 | 77 | 204 | 3.0 | 10.0 | 0.00 | 0.00 | 0.00 | 33 | |
| 20260504180743 | 76 | 348 | 1.0 | 4.0 | 0.00 | 0.00 | 0.00 | 34 | |
| 20260504180241 | 76 | 206 | 2.0 | 5.0 | 0.00 | 0.00 | 0.00 | 34 | |
| 20260504175739 | 76 | 187 | 2.0 | 11.0 | 0.00 | 0.00 | 0.00 | 34 | |
| 20260504175235 | 76 | 338 | 0.0 | 5.0 | 0.00 | 0.00 | 0.00 | 34 | |
| 20260504174733 | 76 | 284 | 2.0 | 3.0 | 0.00 | 0.00 | 0.00 | 34 | |
| 20260504174231 | 76 | 290 | 2.0 | 7.0 | 0.00 | 0.00 | 0.00 | 34 | |
| 20260504173727 | 77 | 95 | 2.0 | 3.0 | 0.00 | 0.00 | 0.00 | 33 | |
| 20260504173224 | 76 | 256 | 0.0 | 3.0 | 0.00 | 0.00 | 0.00 | 34 | |
| 20260504172721 | 75 | 193 | 3.0 | 5.0 | 0.00 | 0.00 | 0.00 | 35 | |
| 20260504172217 | 75 | 215 | 2.0 | 10.0 | 0.00 | 0.00 | 0.00 | 35 | |
| 20260504171714 | 74 | 229 | 0.0 | 5.0 | 0.00 | 0.00 | 0.00 | 37 | |
| 20260504171211 | 73 | 303 | 0.0 | 4.0 | 0.00 | 0.00 | 0.00 | 42 | |
| 20260504170707 | 74 | 17 | 0.0 | 2.0 | 0.00 | 0.00 | 0.00 | 38 | |
| 20260504170205 | 73 | 205 | 0.0 | 2.0 | 0.00 | 0.00 | 0.00 | 40 | |
| 20260504160124 | 65 | 69 | 0.0 | 2.0 | 0.00 | 0.00 | 0.00 | 53 | |
| 20260504151050 | 58 | 89 | 0.0 | 1.0 | 0.00 | 0.00 | 0.00 | 66 | |
| 20260504150548 | 57 | 106 | 0.0 | 2.0 | 0.00 | 0.00 | 0.00 | 67 | |
| 20260504141014 | 45 | 282 | 0.0 | 1.0 | 0.00 | 0.00 | 0.00 | 88 | |
| 20260504140510 | 45 | 327 | 0.0 | 2.0 | 0.00 | 0.00 | 0.00 | 88 | |
| 20260504130435 | 43 | 305 | 0.0 | 2.0 | 0.00 | 0.00 | 0.00 | 88 | |
| 20260504110322 | 46 | 211 | 0.0 | 2.0 | 0.00 | 0.00 | 0.00 | 81 | |
| 20260504100240 | 48 | 58 | 0.0 | 1.0 | 0.00 | 0.00 | 0.00 | 73 | |
| 20260504081633 | 52 | 245 | 0.0 | 3.0 | 0.00 | 0.00 | 0.00 | 64 | |
| 20260504081129 | 52 | 283 | 0.0 | 3.0 | 0.00 | 0.00 | 0.00 | 63 | |
| 20260504080626 | 53 | 269 | 0.0 | 3.0 | 0.00 | 0.00 | 0.00 | 62 | |
| 20260504080122 | 53 | 285 | 2.0 | 2.0 | 0.00 | 0.00 | 0.00 | 61 | |
| 20260504050438 | 61 | 187 | 0.0 | 2.0 | 0.00 | 0.00 | 0.00 | 55 | |
| 20260504045936 | 61 | 278 | 0.0 | 1.0 | 0.00 | 0.00 | 0.00 | 55 | |
| 20260504045431 | 62 | 223 | 0.0 | 2.0 | 0.00 | 0.00 | 0.00 | 52 | |
| 20260504044927 | 63 | 294 | 0.0 | 2.0 | 0.00 | 0.00 | 0.00 | 51 | |
| 20260504044425 | 64 | 318 | 1.0 | 2.0 | 0.00 | 0.00 | 0.00 | 49 | |
| 20260504043922 | 65 | 240 | 0.0 | 1.0 | 0.00 | 0.00 | 0.00 | 47 | |
| 20260504043419 | 66 | 283 | 0.0 | 4.0 | 0.00 | 0.00 | 0.00 | 44 | |
| 20260504042917 | 66 | 336 | 0.0 | 2.0 | 0.00 | 0.00 | 0.00 | 43 | |
| 20260504042413 | 66 | 241 | 0.0 | 5.0 | 0.00 | 0.00 | 0.00 | 43 | |
| 20260504041909 | 66 | 253 | 1.0 | 3.0 | 0.00 | 0.00 | 0.00 | 42 | |
| 20260504041406 | 67 | 234 | 2.0 | 4.0 | 0.00 | 0.00 | 0.00 | 42 | |
| 20260504040902 | 67 | 208 | 0.0 | 2.0 | 0.00 | 0.00 | 0.00 | 42 | |
| 20260504040359 | 68 | 253 | 0.0 | 3.0 | 0.00 | 0.00 | 0.00 | 40 | |
| 20260504035855 | 67 | 261 | 2.0 | 4.0 | 0.00 | 0.00 | 0.00 | 41 | |
| 20260504035353 | 68 | 269 | 0.0 | 3.0 | 0.00 | 0.00 | 0.00 | 41 | |
| 20260504034849 | 68 | 269 | 0.0 | 2.0 | 0.00 | 0.00 | 0.00 | 41 | |
| 20260504034347 | 69 | 292 | 2.0 | 3.0 | 0.00 | 0.00 | 0.00 | 38 | |
| 20260504033844 | 69 | 177 | 1.0 | 6.0 | 0.00 | 0.00 | 0.00 | 38 | |
| 20260504033342 | 69 | 288 | 1.0 | 7.0 | 0.00 | 0.00 | 0.00 | 37 | |
| 20260504032838 | 70 | 243 | 0.0 | 2.0 | 0.00 | 0.00 | 0.00 | 37 | |
| 20260504032336 | 70 | 249 | 0.0 | 3.0 | 0.00 | 0.00 | 0.00 | 36 | |
| 20260504031832 | 71 | 234 | 2.0 | 5.0 | 0.00 | 0.00 | 0.00 | 35 | |
| 20260504031330 | 72 | 210 | 1.0 | 3.0 | 0.00 | 0.00 | 0.00 | 34 | |
| 20260504030826 | 72 | 241 | 3.0 | 4.0 | 0.00 | 0.00 | 0.00 | 33 | |
| 20260504030323 | 73 | 239 | 2.0 | 5.0 | 0.00 | 0.00 | 0.00 | 33 | |
| 20260504025819 | 73 | 230 | 2.0 | 7.0 | 0.00 | 0.00 | 0.00 | 32 | |
| 20260504025317 | 73 | 250 | 2.0 | 7.0 | 0.00 | 0.00 | 0.00 | 32 | |
| 20260504024813 | 73 | 257 | 3.0 | 4.0 | 0.00 | 0.00 | 0.00 | 31 | |
| 20260504024309 | 73 | 202 | 0.0 | 3.0 | 0.00 | 0.00 | 0.00 | 31 | |
| 20260504023806 | 74 | 235 | 1.0 | 5.0 | 0.00 | 0.00 | 0.00 | 31 | |
| 20260504023303 | 74 | 351 | 0.0 | 6.0 | 0.00 | 0.00 | 0.00 | 31 | |
| 20260504022759 | 75 | 279 | 0.0 | 5.0 | 0.00 | 0.00 | 0.00 | 31 | |
| 20260504022255 | 75 | 269 | 0.0 | 7.0 | 0.00 | 0.00 | 0.00 | 31 | |
| 20260504021752 | 75 | 227 | 2.0 | 6.0 | 0.00 | 0.00 | 0.00 | 31 | |
| 20260504021250 | 76 | 209 | 3.0 | 9.0 | 0.00 | 0.00 | 0.00 | 31 | |
| 20260504020746 | 76 | 277 | 0.0 | 6.0 | 0.00 | 0.00 | 0.00 | 32 | |
| 20260504020243 | 77 | 222 | 0.0 | 3.0 | 0.00 | 0.00 | 0.00 | 32 | |
| 20260504015739 | 77 | 214 | 2.0 | 3.0 | 0.00 | 0.00 | 0.00 | 31 | |
| 20260504015236 | 78 | 188 | 3.0 | 7.0 | 0.00 | 0.00 | 0.00 | 30 | |
| 20260504014731 | 79 | 255 | 1.0 | 7.0 | 0.00 | 0.00 | 0.00 | 29 | |
| 20260504014228 | 80 | 355 | 2.0 | 11.0 | 0.00 | 0.00 | 0.00 | 28 | |
| 20260504013726 | 81 | 224 | 2.0 | 3.0 | 0.00 | 0.00 | 0.00 | 27 | |
| 20260504013224 | 81 | 280 | 2.0 | 3.0 | 0.00 | 0.00 | 0.00 | 27 | |
| 20260504012720 | 81 | 197 | 2.0 | 4.0 | 0.00 | 0.00 | 0.00 | 27 | |
| 20260504012218 | 81 | 172 | 2.0 | 4.0 | 0.00 | 0.00 | 0.00 | 27 | |
| 20260504011714 | 82 | 264 | 2.0 | 10.0 | 0.00 | 0.00 | 0.00 | 26 | |
| 20260504011211 | 82 | 267 | 2.0 | 5.0 | 0.00 | 0.00 | 0.00 | 27 | |
| 20260504010707 | 82 | 202 | 2.0 | 6.0 | 0.00 | 0.00 | 0.00 | 26 | |
| 20260504010203 | 82 | 245 | 1.0 | 5.0 | 0.00 | 0.00 | 0.00 | 26 | |
| 20260504005659 | 82 | 189 | 2.0 | 7.0 | 0.00 | 0.00 | 0.00 | 26 | |
| 20260504005157 | 82 | 296 | 0.0 | 4.0 | 0.00 | 0.00 | 0.00 | 26 | |
| 20260504004655 | 83 | 274 | 2.0 | 8.0 | 0.00 | 0.00 | 0.00 | 25 | |
| 20260504004151 | 83 | 240 | 3.0 | 6.0 | 0.00 | 0.00 | 0.00 | 25 | |
| 20260504003648 | 83 | 281 | 3.0 | 7.0 | 0.00 | 0.00 | 0.00 | 25 | |
| 20260504003144 | 84 | 128 | 2.0 | 10.0 | 0.00 | 0.00 | 0.00 | 25 | |
| 20260504002641 | 83 | 322 | 2.0 | 7.0 | 0.00 | 0.00 | 0.00 | 25 | |
| 20260504002139 | 84 | 232 | 3.0 | 5.0 | 0.00 | 0.00 | 0.00 | 25 | |
| 20260504001637 | 84 | 220 | 3.0 | 7.0 | 0.00 | 0.00 | 0.00 | 24 | |
| 20260504001132 | 85 | 273 | 4.0 | 5.0 | 0.00 | 0.00 | 0.00 | 25 | |
| 20260504000630 | 84 | 266 | 3.0 | 6.0 | 0.00 | 0.00 | 0.00 | 24 | |
| 20260504000127 | 84 | 285 | 4.0 | 5.0 | 0.00 | 0.00 | 0.00 | 25 | |
| 20260503235625 | 84 | 243 | 1.0 | 8.0 | 0.00 | 0.00 | 0.00 | 25 | |
| 20260503235121 | 84 | 263 | 2.0 | 6.0 | 0.00 | 0.00 | 0.00 | 23 | |
| 20260503234620 | 85 | 252 | 2.0 | 7.0 | 0.00 | 0.00 | 0.00 | 24 | |
| 20260503234118 | 85 | 277 | 2.0 | 4.0 | 0.00 | 0.00 | 0.00 | 24 | |
| 20260503233614 | 86 | 215 | 3.0 | 4.0 | 0.00 | 0.00 | 0.00 | 21 | |
| 20260503233110 | 86 | 275 | 2.0 | 3.0 | 0.00 | 0.00 | 0.00 | 21 | |
| 20260503232607 | 85 | 263 | 1.0 | 4.0 | 0.00 | 0.00 | 0.00 | 22 | |
| 20260503232104 | 85 | 184 | 4.0 | 5.0 | 0.00 | 0.00 | 0.00 | 21 |